Terminal Aerodrome Forecast
Issued by NWS

Home | Current Version | Previous Version | Text Only | Print | Product List | Glossary On
Versions: 1 2 3 4 5 6 7 8 9 10 11 12 13 14 15 16 17 18
000
FTUS45 KRIW 300500
TAFCOD
TAF
KCOD 300531Z 3006/3106 27012G18KT P6SM FEW110 SCT200
     FM301600 VRB06KT P6SM FEW110 SCT200
     FM302200 25012G18KT P6SM FEW200
      AMD LTD TO CLD VIS AND WIND=

USA.gov is the U.S. government's official web portal to all federal, state and local government web resources and services.